Time;durP1;ratioP1;P1;durP2;ratioP2;P2;SDS_P1;SDS_P2;PMS_P1;PMS_P2;Temp;Humidity;BMP_temperature;BMP_pressure;BME280_temperature;BME280_humidity;BME280_pressure;Samples;Min_cycle;Max_cycle;Signal;HPM_P1;HPM_P2
2022/05/06 00:04:43;;;;;;;;;19.50;16.75;;;;;;;;6489818;46;8920;-59
2022/05/06 00:11:37;;;;;;;;;19.50;19.50;;;;;;;;6490789;39;8949;-60
2022/05/06 00:18:58;;;;;;;;;18.75;16.75;;;;;;;;6489573;46;8976;-58
2022/05/06 00:33:07;;;;;;;;;23.25;20.00;;;;;;;;6490539;39;8991;-58
2022/05/06 00:40:13;;;;;;;;;17.50;16.25;;;;;;;;6490203;39;8893;-59
2022/05/06 00:47:13;;;;;;;;;20.50;17.00;;;;;;;;6490604;39;8902;-59
2022/05/06 00:54:24;;;;;;;;;18.00;16.25;;;;;;;;6490700;39;8892;-59
2022/05/06 01:02:01;;;;;;;;;21.00;18.25;;;;;;;;6490284;39;8890;-59
2022/05/06 01:09:22;;;;;;;;;16.25;16.25;;;;;;;;6493948;31;8957;-59
2022/05/06 01:23:17;;;;;;;;;18.00;14.75;;;;;;;;6492759;39;8842;-59
2022/05/06 01:44:37;;;;;;;;;17.50;15.25;;;;;;;;6492989;39;9085;-59
2022/05/06 02:20:33;;;;;;;;;14.00;13.00;;;;;;;;6489630;46;8831;-59
2022/05/06 02:27:45;;;;;;;;;12.25;12.25;;;;;;;;6489434;39;9553;-58
2022/05/06 02:34:29;;;;;;;;;16.50;14.50;;;;;;;;6488947;39;8974;-59
2022/05/06 02:42:16;;;;;;;;;18.25;15.25;;;;;;;;6493009;31;8851;-58
2022/05/06 03:02:42;;;;;;;;;17.00;14.50;;;;;;;;6493683;39;8860;-59
2022/05/06 03:16:23;;;;;;;;;11.75;11.75;;;;;;;;6494247;46;8900;-59
2022/05/06 03:23:15;;;;;;;;;13.50;12.25;;;;;;;;6493251;39;10174;-58
2022/05/06 03:37:27;;;;;;;;;14.00;14.00;;;;;;;;6495668;31;8918;-58
2022/05/06 03:44:19;;;;;;;;;14.50;14.25;;;;;;;;6492653;46;9038;-58
2022/05/06 03:51:27;;;;;;;;;17.50;14.25;;;;;;;;6495022;39;9549;-59
2022/05/06 03:58:51;;;;;;;;;14.75;14.25;;;;;;;;6490745;31;8960;-58
2022/05/06 04:27:18;;;;;;;;;17.50;16.25;;;;;;;;6489443;46;8908;-59
2022/05/06 04:55:19;;;;;;;;;16.50;16.00;;;;;;;;6489797;39;8935;-58
2022/05/06 05:16:24;;;;;;;;;20.50;13.75;;;;;;;;6489956;39;8967;-59
2022/05/06 05:23:42;;;;;;;;;13.75;13.50;;;;;;;;6490347;31;8888;-59
2022/05/06 05:37:50;;;;;;;;;15.00;15.00;;;;;;;;6490619;39;8908;-60
2022/05/06 05:51:48;;;;;;;;;15.00;14.50;;;;;;;;6490334;31;8945;-60
2022/05/06 06:06:01;;;;;;;;;26.25;23.75;;;;;;;;6492119;46;8922;-58
2022/05/06 06:27:19;;;;;;;;;12.33;12.00;;;;;;;;6492097;31;8889;-59
2022/05/06 06:41:11;;;;;;;;;16.00;14.67;;;;;;;;6492851;39;8983;-61
2022/05/06 06:47:53;;;;;;;;;9.67;9.33;;;;;;;;6492430;39;8842;-58
2022/05/06 06:54:37;;;;;;;;;14.00;13.00;;;;;;;;6491364;47;8956;-59
2022/05/06 07:01:33;;;;;;;;;12.67;11.00;;;;;;;;6492767;47;8921;-60
2022/05/06 07:15:17;;;;;;;;;16.67;12.67;;;;;;;;6491549;39;9016;-59
2022/05/06 07:22:02;;;;;;;;;18.67;14.00;;;;;;;;6491197;31;8866;-59
2022/05/06 07:29:04;;;;;;;;;12.67;10.33;;;;;;;;6490887;47;8951;-58
2022/05/06 07:36:11;;;;;;;;;12.33;11.00;;;;;;;;6490771;47;8875;-59
2022/05/06 07:42:51;;;;;;;;;15.00;13.67;;;;;;;;6492133;39;9531;-59
2022/05/06 07:49:35;;;;;;;;;9.00;9.00;;;;;;;;6495266;31;8977;-58
2022/05/06 07:56:41;;;;;;;;;14.00;14.00;;;;;;;;6493912;31;8998;-58
2022/05/06 08:11:05;;;;;;;;;15.33;12.67;;;;;;;;6491538;46;8981;-59
2022/05/06 08:18:40;;;;;;;;;3.00;3.00;;;;;;;;6491790;39;9148;-58
2022/05/06 08:25:47;;;;;;;;;5.67;5.67;;;;;;;;6488110;46;8944;-59
2022/05/06 08:32:08;;;;;;;;;4.67;4.33;;;;;;;;6488619;31;8883;-59
2022/05/06 08:38:18;;;;;;;;;7.33;7.33;;;;;;;;6487794;46;8869;-59
2022/05/06 08:50:57;;;;;;;;;8.00;7.33;;;;;;;;6488280;39;8916;-59
2022/05/06 08:57:03;;;;;;;;;7.33;7.33;;;;;;;;6487523;46;9396;-60
2022/05/06 09:03:08;;;;;;;;;8.67;8.33;;;;;;;;6488317;39;8900;-59
2022/05/06 09:09:25;;;;;;;;;5.67;5.67;;;;;;;;6490503;39;8885;-59
2022/05/06 09:22:17;;;;;;;;;9.75;9.75;;;;;;;;6490924;39;8880;-59
2022/05/06 09:28:28;;;;;;;;;10.75;9.50;;;;;;;;6490709;31;8884;-58
2022/05/06 09:34:30;;;;;;;;;8.50;8.25;;;;;;;;6490462;39;8955;-59
2022/05/06 09:40:37;;;;;;;;;8.75;7.50;;;;;;;;6490677;39;9713;-57
2022/05/06 09:46:41;;;;;;;;;10.50;10.00;;;;;;;;6488974;46;8896;-59
2022/05/06 09:53:00;;;;;;;;;7.75;7.50;;;;;;;;6472407;39;9601;-59
2022/05/06 10:06:36;;;;;;;;;10.00;8.00;;;;;;;;6490356;31;8916;-59
2022/05/06 10:12:45;;;;;;;;;8.75;8.75;;;;;;;;6490515;39;8960;-59
2022/05/06 10:18:54;;;;;;;;;8.50;8.00;;;;;;;;6489670;46;8932;-58
2022/05/06 10:25:00;;;;;;;;;8.50;8.50;;;;;;;;6490022;39;8913;-58
2022/05/06 10:38:20;;;;;;;;;16.67;16.67;;;;;;;;6490639;39;8953;-60
2022/05/06 10:44:36;;;;;;;;;11.00;11.00;;;;;;;;6490366;39;8884;-59
2022/05/06 10:50:49;;;;;;;;;7.00;7.00;;;;;;;;6490463;39;8929;-58
2022/05/06 10:57:06;;;;;;;;;8.33;8.33;;;;;;;;6490960;39;8934;-59
2022/05/06 11:03:17;;;;;;;;;10.75;10.25;;;;;;;;6489912;47;8939;-59
2022/05/06 11:09:29;;;;;;;;;12.25;10.75;;;;;;;;6490163;39;9528;-58
2022/05/06 11:15:56;;;;;;;;;9.75;8.00;;;;;;;;6490662;39;8969;-58
2022/05/06 11:22:23;;;;;;;;;15.67;15.67;;;;;;;;6491478;39;8888;-58
2022/05/06 11:28:35;;;;;;;;;18.00;15.50;;;;;;;;6491108;31;8875;-59
2022/05/06 11:34:56;;;;;;;;;16.75;14.75;;;;;;;;6490753;46;9052;-58
2022/05/06 11:41:38;;;;;;;;;6.00;6.00;;;;;;;;6491592;39;8886;-58
2022/05/06 11:48:29;;;;;;;;;12.00;8.00;;;;;;;;6492804;39;8940;-59
2022/05/06 11:54:33;;;;;;;;;9.25;8.75;;;;;;;;6491319;39;8898;-59
2022/05/06 12:00:52;;;;;;;;;11.00;8.00;;;;;;;;6491714;46;8933;-58
2022/05/06 12:07:07;;;;;;;;;18.50;16.00;;;;;;;;6491966;39;8970;-58
2022/05/06 12:20:49;;;;;;;;;5.50;5.25;;;;;;;;6491913;39;8999;-59
2022/05/06 12:27:39;;;;;;;;;9.25;8.00;;;;;;;;6491970;39;8897;-60
2022/05/06 12:33:59;;;;;;;;;11.00;9.00;;;;;;;;6491705;39;8876;-60
2022/05/06 12:40:08;;;;;;;;;36.00;33.67;;;;;;;;6491648;39;9602;-59
2022/05/06 12:46:36;;;;;;;;;13.50;13.50;;;;;;;;6491035;39;8877;-59
2022/05/06 12:52:39;;;;;;;;;6.33;6.33;;;;;;;;6492363;39;8948;-59
2022/05/06 12:58:51;;;;;;;;;7.75;6.50;;;;;;;;6490959;39;9078;-59
2022/05/06 13:04:57;;;;;;;;;6.67;6.33;;;;;;;;6490938;46;8912;-60
2022/05/06 13:11:02;;;;;;;;;11.00;9.50;;;;;;;;6491834;39;8911;-60
2022/05/06 13:17:10;;;;;;;;;9.25;8.50;;;;;;;;6490515;46;9063;-59
2022/05/06 13:23:18;;;;;;;;;9.75;9.00;;;;;;;;6488753;39;9025;-60
2022/05/06 13:29:49;;;;;;;;;7.67;7.67;;;;;;;;6488910;31;8829;-59
2022/05/06 13:35:53;;;;;;;;;9.25;9.25;;;;;;;;6491021;31;8891;-59
2022/05/06 13:41:57;;;;;;;;;5.25;5.25;;;;;;;;6489364;39;8893;-60
2022/05/06 13:48:02;;;;;;;;;8.75;8.00;;;;;;;;6488768;39;8927;-59
2022/05/06 13:54:11;;;;;;;;;8.25;8.25;;;;;;;;6491877;39;8929;-60
2022/05/06 14:00:15;;;;;;;;;4.50;4.50;;;;;;;;6490812;39;8941;-60
2022/05/06 14:06:24;;;;;;;;;10.00;10.00;;;;;;;;6491006;39;8963;-61
2022/05/06 14:12:38;;;;;;;;;12.25;10.75;;;;;;;;6490446;39;8960;-59
2022/05/06 14:18:41;;;;;;;;;7.75;6.00;;;;;;;;6490718;39;8939;-60
2022/05/06 14:24:52;;;;;;;;;9.50;9.50;;;;;;;;6490473;39;8874;-60
2022/05/06 14:31:01;;;;;;;;;12.75;11.00;;;;;;;;6491059;31;9003;-59
2022/05/06 14:37:12;;;;;;;;;9.25;9.25;;;;;;;;6489985;46;8913;-59
2022/05/06 14:43:17;;;;;;;;;8.25;6.00;;;;;;;;6490834;39;8904;-59
2022/05/06 14:49:23;;;;;;;;;6.75;6.75;;;;;;;;6533806;36;9061;-60
2022/05/06 14:55:32;;;;;;;;;10.75;9.00;;;;;;;;6488323;39;8946;-61
2022/05/06 15:01:36;;;;;;;;;7.00;6.75;;;;;;;;6488226;46;9049;-59
2022/05/06 15:07:44;;;;;;;;;11.00;9.75;;;;;;;;6488982;39;9658;-61
2022/05/06 15:13:49;;;;;;;;;10.00;8.25;;;;;;;;6488267;39;8949;-59
2022/05/06 15:20:00;;;;;;;;;6.00;6.00;;;;;;;;6489981;46;8865;-60
2022/05/06 15:26:07;;;;;;;;;16.33;13.00;;;;;;;;6491688;39;8880;-59
2022/05/06 15:32:33;;;;;;;;;13.50;11.50;;;;;;;;6491140;39;8913;-59
2022/05/06 15:38:38;;;;;;;;;17.67;13.00;;;;;;;;6492227;39;8900;-59
2022/05/06 15:44:59;;;;;;;;;10.00;10.00;;;;;;;;6490776;39;9923;-60
2022/05/06 15:51:12;;;;;;;;;15.67;14.67;;;;;;;;6491745;39;8945;-59
2022/05/06 15:57:47;;;;;;;;;25.67;23.67;;;;;;;;6490839;46;8891;-60
2022/05/06 16:04:01;;;;;;;;;15.67;14.33;;;;;;;;6491366;39;9039;-59
2022/05/06 16:10:11;;;;;;;;;15.67;14.33;;;;;;;;6490760;31;9607;-59
2022/05/06 16:16:19;;;;;;;;;18.33;17.67;;;;;;;;6490839;39;8912;-58
2022/05/06 16:22:30;;;;;;;;;13.00;10.67;;;;;;;;6490936;31;8889;-60
2022/05/06 16:28:36;;;;;;;;;11.67;11.67;;;;;;;;6491250;39;8967;-59
2022/05/06 16:41:07;;;;;;;;;28.67;28.33;;;;;;;;6489781;46;8985;-59
2022/05/06 16:47:09;;;;;;;;;22.33;20.33;;;;;;;;6491231;39;9587;-59
2022/05/06 16:53:16;;;;;;;;;26.33;20.67;;;;;;;;6489937;46;8916;-59
2022/05/06 16:59:21;;;;;;;;;21.00;19.33;;;;;;;;6490662;39;8897;-58
2022/05/06 17:05:28;;;;;;;;;23.00;22.67;;;;;;;;6491051;39;8919;-61
2022/05/06 17:11:38;;;;;;;;;16.33;15.33;;;;;;;;6489879;47;8845;-59
2022/05/06 17:17:46;;;;;;;;;14.50;14.50;;;;;;;;6489782;46;8908;-60
2022/05/06 17:23:57;;;;;;;;;19.67;18.67;;;;;;;;6491179;39;8837;-59
2022/05/06 17:30:00;;;;;;;;;22.67;22.67;;;;;;;;6491346;31;8896;-59
2022/05/06 17:36:09;;;;;;;;;20.67;19.00;;;;;;;;6489714;39;8957;-60
2022/05/06 17:42:15;;;;;;;;;19.67;18.67;;;;;;;;6489674;39;8856;-60
2022/05/06 17:48:25;;;;;;;;;23.33;20.33;;;;;;;;6490763;31;9036;-59
2022/05/06 17:54:34;;;;;;;;;16.00;15.00;;;;;;;;6490500;39;8940;-59
2022/05/06 18:07:12;;;;;;;;;36.00;35.25;;;;;;;;6490173;39;8864;-59
2022/05/06 18:13:20;;;;;;;;;51.25;43.50;;;;;;;;6490860;39;8845;-59
2022/05/06 18:19:25;;;;;;;;;45.50;40.50;;;;;;;;6489254;39;9017;-61
2022/05/06 18:25:33;;;;;;;;;45.50;39.00;;;;;;;;6489497;46;8959;-59
2022/05/06 18:38:12;;;;;;;;;34.50;30.50;;;;;;;;6489988;36;8889;-60
